Time;durP1;ratioP1;P1;durP2;ratioP2;P2;SDS_P1;SDS_P2;PMS_P1;PMS_P2;Temp;Humidity;BMP_temperature;BMP_pressure;BME280_temperature;BME280_humidity;BME280_pressure;Samples;Min_cycle;Max_cycle;Signal;HPM_P1;HPM_P2
2023/01/12 00:01:39;;;;;;;1.25;1.15;;;7.30;99.90;;;;;;5049514;28;20033;-80
2023/01/12 00:04:05;;;;;;;0.25;0.25;;;7.30;99.90;;;;;;5044860;28;20028;-80
2023/01/12 00:06:32;;;;;;;1.25;1.25;;;7.30;99.90;;;;;;5050971;28;20055;-80
2023/01/12 00:08:58;;;;;;;1.25;0.88;;;7.30;99.90;;;;;;5046090;28;20123;-79
2023/01/12 00:11:25;;;;;;;0.35;0.35;;;7.40;99.90;;;;;;5047075;28;20615;-80
2023/01/12 00:13:50;;;;;;;0.17;0.17;;;7.40;99.90;;;;;;5047614;28;20033;-80
2023/01/12 00:16:36;;;;;;;0.85;0.80;;;7.40;99.90;;;;;;5044528;28;20029;-80
2023/01/12 00:19:10;;;;;;;0.20;0.20;;;7.30;99.90;;;;;;5040422;28;20043;-80
2023/01/12 00:21:45;;;;;;;0.38;0.38;;;7.40;99.90;;;;;;5044081;28;20094;-80
2023/01/12 00:24:11;;;;;;;0.13;0.13;;;7.40;99.90;;;;;;5034706;28;20029;-80
2023/01/12 00:26:37;;;;;;;0.10;0.10;;;7.40;99.90;;;;;;5045460;28;20733;-80
2023/01/12 00:29:03;;;;;;;0.10;0.10;;;7.40;99.90;;;;;;5034814;28;20068;-80
2023/01/12 00:31:28;;;;;;;1.00;1.00;;;7.30;99.90;;;;;;5043709;28;20025;-81
2023/01/12 00:33:54;;;;;;;1.48;1.38;;;7.30;99.90;;;;;;5044020;28;20043;-80
2023/01/12 00:36:20;;;;;;;0.22;0.22;;;7.20;99.90;;;;;;5044011;28;20032;-80
2023/01/12 00:38:47;;;;;;;0.30;0.30;;;7.30;99.90;;;;;;5043815;28;20051;-80
2023/01/12 00:45:20;;;;;;;0.20;0.20;;;7.30;99.90;;;;;;5043973;28;20024;-81
2023/01/12 00:46:46;;;;;;;0.70;0.70;;;7.30;99.90;;;;;;5044037;28;20044;-79
2023/01/12 00:49:12;;;;;;;12.32;0.68;;;7.20;99.90;;;;;;5044007;28;20108;-79
2023/01/12 00:51:38;;;;;;;0.10;0.10;;;7.20;99.90;;;;;;5042746;28;20528;-79
2023/01/12 00:54:07;;;;;;;0.28;0.28;;;7.20;99.90;;;;;;5043672;28;20036;-79
2023/01/12 00:56:34;;;;;;;0.57;0.30;;;7.10;99.90;;;;;;5043624;28;20484;-79
2023/01/12 00:58:59;;;;;;;;;;;7.20;99.90;;;;;;5044086;28;20041;-78
2023/01/12 01:01:25;;;;;;;0.27;0.27;;;7.30;99.90;;;;;;5043597;28;19939;-80
2023/01/12 01:03:51;;;;;;;1.08;1.08;;;7.30;99.90;;;;;;5043418;28;20079;-79
2023/01/12 01:06:16;;;;;;;2.80;1.88;;;7.30;99.90;;;;;;5043370;28;20087;-79
2023/01/12 01:08:42;;;;;;;0.10;0.10;;;7.10;99.90;;;;;;5043379;28;20076;-80
2023/01/12 01:11:10;;;;;;;0.75;0.73;;;7.00;99.90;;;;;;5043303;28;20056;-80
2023/01/12 01:13:39;;;;;;;0.68;0.68;;;6.90;99.90;;;;;;5043702;28;20021;-79
2023/01/12 01:16:07;;;;;;;0.82;0.82;;;7.00;99.90;;;;;;5043299;28;20021;-79
2023/01/12 01:18:33;;;;;;;0.57;0.57;;;6.90;99.90;;;;;;5042947;28;20059;-80
2023/01/12 01:20:59;;;;;;;0.25;0.25;;;7.00;99.90;;;;;;5043398;28;20070;-80
2023/01/12 01:23:26;;;;;;;0.43;0.43;;;7.10;99.90;;;;;;5043391;28;20029;-79
2023/01/12 01:25:52;;;;;;;0.60;0.40;;;7.10;99.90;;;;;;5042126;28;20108;-80
2023/01/12 01:28:18;;;;;;;0.28;0.28;;;7.10;99.90;;;;;;5042846;28;20031;-79
2023/01/12 01:30:45;;;;;;;0.13;0.13;;;7.20;99.90;;;;;;5043205;28;20028;-80
2023/01/12 01:33:11;;;;;;;0.10;0.10;;;7.10;99.90;;;;;;5042532;28;20021;-78
2023/01/12 01:35:37;;;;;;;1.08;1.00;;;7.20;99.90;;;;;;5042851;28;20040;-79
2023/01/12 01:38:03;;;;;;;1.10;0.95;;;7.20;99.90;;;;;;5042062;28;20041;-80
2023/01/12 01:40:30;;;;;;;0.52;0.30;;;6.90;99.90;;;;;;5042672;28;20032;-80
2023/01/12 01:42:56;;;;;;;1.05;0.60;;;6.80;99.90;;;;;;5042497;28;20056;-78
2023/01/12 01:45:22;;;;;;;0.30;0.30;;;6.90;99.90;;;;;;5042655;28;20447;-80
2023/01/12 01:48:11;;;;;;;2.63;1.17;;;6.90;99.90;;;;;;5042885;28;20025;-79
2023/01/12 01:50:40;;;;;;;4.78;1.30;;;6.80;99.90;;;;;;5037374;28;20021;-79
2023/01/12 01:53:15;;;;;;;0.52;0.45;;;6.70;99.90;;;;;;5042455;28;20040;-79
2023/01/12 01:56:06;;;;;;;0.43;0.43;;;6.60;99.90;;;;;;5041909;28;20510;-79
2023/01/12 01:58:43;;;;;;;0.57;0.55;;;6.50;99.90;;;;;;5040675;28;20037;-79
2023/01/12 02:01:09;;;;;;;;;;;6.40;99.90;;;;;;5042274;28;20032;-77
2023/01/12 02:03:36;;;;;;;3.35;1.70;;;6.50;99.90;;;;;;5042136;28;19950;-78
2023/01/12 02:06:03;;;;;;;0.20;0.20;;;6.60;99.90;;;;;;5042132;28;20115;-78
2023/01/12 02:08:52;;;;;;;0.10;0.10;;;6.60;99.90;;;;;;5041104;28;20468;-78
2023/01/12 02:17:25;;;;;;;0.75;0.75;;;6.60;99.90;;;;;;5037716;28;20995;-78
2023/01/12 02:20:09;;;;;;;2.65;2.17;;;6.70;99.90;;;;;;5033753;28;20569;-79
2023/01/12 02:22:58;;;;;;;1.17;1.15;;;6.80;99.90;;;;;;5033148;28;20029;-79
2023/01/12 02:25:26;;;;;;;1.30;0.82;;;6.80;99.90;;;;;;5023340;28;20939;-80
2023/01/12 02:28:07;;;;;;;0.30;0.30;;;6.70;99.90;;;;;;5041123;28;20103;-79
2023/01/12 02:30:46;;;;;;;0.30;0.30;;;6.70;99.90;;;;;;5041365;28;20915;-80
2023/01/12 02:33:37;;;;;;;0.10;0.10;;;6.80;99.90;;;;;;5041649;28;20825;-78
2023/01/12 02:36:25;;;;;;;1.13;1.13;;;6.80;99.90;;;;;;5041302;28;20025;-78
2023/01/12 02:39:06;;;;;;;0.57;0.57;;;6.80;99.90;;;;;;5033146;28;20040;-79
2023/01/12 02:44:31;;;;;;;0.10;0.10;;;6.90;99.90;;;;;;5041492;28;20781;-78
2023/01/12 02:47:00;;;;;;;2.28;0.95;;;6.90;99.90;;;;;;5041410;28;20040;-79
2023/01/12 02:49:30;;;;;;;22.88;1.05;;;6.80;99.90;;;;;;5041316;28;20104;-80
2023/01/12 02:52:05;;;;;;;0.40;0.40;;;6.80;99.90;;;;;;5035771;28;20053;-78
2023/01/12 02:54:33;;;;;;;1.08;0.88;;;6.80;99.90;;;;;;5054566;28;20560;-79
2023/01/12 02:57:04;;;;;;;0.40;0.40;;;6.80;99.90;;;;;;5041227;28;20156;-78
2023/01/12 02:59:33;;;;;;;4.22;1.30;;;6.80;99.90;;;;;;5041302;28;20017;-78
2023/01/12 03:02:05;;;;;;;0.75;0.75;;;6.80;99.90;;;;;;5037343;28;20033;-78
2023/01/12 03:04:31;;;;;;;0.60;0.60;;;6.90;99.90;;;;;;5031524;28;20036;-78
2023/01/12 03:06:57;;;;;;;3.17;1.13;;;7.00;99.90;;;;;;5033117;28;20092;-78
2023/01/12 03:09:46;;;;;;;0.38;0.38;;;7.00;99.90;;;;;;5041119;28;20136;-78
2023/01/12 03:12:27;;;;;;;1.10;1.10;;;6.90;99.90;;;;;;5036437;28;20867;-78
2023/01/12 03:14:55;;;;;;;7.85;1.58;;;6.90;99.90;;;;;;5041076;28;20025;-78
2023/01/12 03:17:30;;;;;;;0.47;0.47;;;6.90;99.90;;;;;;5039655;28;20033;-78
2023/01/12 03:20:02;;;;;;;0.93;0.90;;;7.00;99.90;;;;;;5040609;28;20514;-79
2023/01/12 03:22:31;;;;;;;0.77;0.77;;;7.00;99.90;;;;;;5041157;28;20522;-79
2023/01/12 03:25:01;;;;;;;1.25;0.80;;;7.10;99.90;;;;;;5040056;28;20025;-78
2023/01/12 03:27:37;;;;;;;0.40;0.40;;;7.10;99.90;;;;;;5041842;28;20108;-79
2023/01/12 03:30:26;;;;;;;0.65;0.65;;;7.10;99.90;;;;;;5041476;28;20025;-79
2023/01/12 03:32:52;;;;;;;2.20;1.38;;;7.10;99.90;;;;;;5037948;28;20041;-79
2023/01/12 03:35:21;;;;;;;0.22;0.22;;;7.20;99.90;;;;;;5042839;28;20025;-79
2023/01/12 03:37:56;;;;;;;0.10;0.10;;;7.10;99.90;;;;;;5043755;28;20037;-79
2023/01/12 03:40:34;;;;;;;4.85;1.40;;;7.20;99.90;;;;;;5040346;28;20052;-78
2023/01/12 03:43:06;;;;;;;2.63;0.47;;;7.10;99.90;;;;;;5040117;28;20033;-79
2023/01/12 03:45:38;;;;;;;1.50;1.30;;;7.20;99.90;;;;;;5042358;28;20054;-79
2023/01/12 03:48:22;;;;;;;0.13;0.13;;;7.20;99.90;;;;;;5041120;28;20025;-79
2023/01/12 03:50:49;;;;;;;0.10;0.10;;;7.20;99.90;;;;;;5041080;28;20032;-79
2023/01/12 03:53:20;;;;;;;4.57;0.95;;;7.20;99.90;;;;;;5044074;28;20518;-80
2023/01/12 03:55:49;;;;;;;0.50;0.50;;;7.20;99.90;;;;;;5044381;28;20032;-80
2023/01/12 03:58:16;;;;;;;0.28;0.28;;;7.20;99.90;;;;;;5044323;28;20151;-79
2023/01/12 04:00:42;;;;;;;;;;;7.20;99.90;;;;;;5042625;28;20434;-79
2023/01/12 04:03:12;;;;;;;0.65;0.65;;;7.30;99.90;;;;;;5044706;28;19909;-79
2023/01/12 04:05:39;;;;;;;0.43;0.43;;;7.30;99.90;;;;;;5044354;28;20028;-80
2023/01/12 04:08:04;;;;;;;;;;;7.20;99.90;;;;;;5037128;28;20049;-80
2023/01/12 04:10:30;;;;;;;0.67;0.63;;;7.20;99.90;;;;;;5044289;28;19997;-80
2023/01/12 04:12:56;;;;;;;0.20;0.20;;;7.30;99.90;;;;;;5045073;28;20029;-79
2023/01/12 04:15:22;;;;;;;1.48;1.45;;;7.30;99.90;;;;;;5044080;28;20032;-79
2023/01/12 04:17:47;;;;;;;0.22;0.22;;;7.30;99.90;;;;;;5043297;28;20489;-78
2023/01/12 04:20:13;;;;;;;1.10;0.93;;;7.20;99.90;;;;;;5044218;28;20060;-78
2023/01/12 04:22:42;;;;;;;0.10;0.10;;;7.20;99.90;;;;;;5044484;28;20021;-79
2023/01/12 04:25:11;;;;;;;0.20;0.20;;;7.30;99.90;;;;;;5043340;28;20112;-79
2023/01/12 04:27:41;;;;;;;0.68;0.68;;;7.30;99.90;;;;;;5046314;28;20025;-78
2023/01/12 04:30:08;;;;;;;0.22;0.22;;;7.30;99.90;;;;;;5043960;28;20728;-78
2023/01/12 04:32:33;;;;;;;0.20;0.20;;;7.20;99.90;;;;;;5044083;28;20059;-79
2023/01/12 04:34:59;;;;;;;0.63;0.63;;;7.30;99.90;;;;;;5044221;28;20135;-79
2023/01/12 04:37:25;;;;;;;0.73;0.73;;;7.30;99.90;;;;;;5043895;28;20037;-79
2023/01/12 04:39:50;;;;;;;6.03;1.50;;;7.30;99.90;;;;;;5043675;28;20033;-79
2023/01/12 04:45:00;;;;;;;0.20;0.20;;;7.40;99.90;;;;;;5043292;28;20110;-78
2023/01/12 04:47:26;;;;;;;2.55;1.27;;;7.30;99.90;;;;;;5043837;28;20024;-79
2023/01/12 04:49:52;;;;;;;0.38;0.38;;;7.30;99.90;;;;;;5043775;28;20033;-78
2023/01/12 04:52:17;;;;;;;0.10;0.10;;;7.40;99.90;;;;;;5044010;28;20104;-77
2023/01/12 04:54:43;;;;;;;0.47;0.47;;;7.40;99.90;;;;;;5042456;28;20025;-78
2023/01/12 04:57:09;;;;;;;0.10;0.10;;;7.40;99.90;;;;;;5043638;28;20106;-78
2023/01/12 04:59:35;;;;;;;0.20;0.20;;;7.40;99.90;;;;;;5039276;28;20039;-79
2023/01/12 05:02:00;;;;;;;0.20;0.20;;;7.40;99.90;;;;;;5043060;28;20099;-78
2023/01/12 05:04:26;;;;;;;0.20;0.20;;;7.40;99.90;;;;;;5043036;28;20033;-78
2023/01/12 05:06:52;;;;;;;0.20;0.20;;;7.40;99.90;;;;;;5034823;28;20029;-78
2023/01/12 05:12:02;;;;;;;6.13;2.28;;;7.40;99.90;;;;;;5042633;28;20036;-78
2023/01/12 05:14:28;;;;;;;0.10;0.10;;;7.40;99.90;;;;;;5043448;28;20033;-78
2023/01/12 05:16:53;;;;;;;2.53;0.87;;;7.40;99.90;;;;;;5042603;28;20072;-80
2023/01/12 05:19:19;;;;;;;2.00;1.55;;;7.40;99.90;;;;;;5042699;28;20116;-78
2023/01/12 05:21:45;;;;;;;11.73;1.25;;;7.50;99.90;;;;;;5042764;28;20040;-78
2023/01/12 05:24:10;;;;;;;0.20;0.20;;;7.40;99.90;;;;;;5043188;28;20441;-78
2023/01/12 05:26:36;;;;;;;0.13;0.13;;;7.40;99.90;;;;;;5044112;28;20035;-78
2023/01/12 05:29:02;;;;;;;1.23;0.85;;;7.50;99.90;;;;;;5043218;28;20103;-78
2023/01/12 05:31:28;;;;;;;0.20;0.20;;;7.50;99.90;;;;;;5042880;28;20128;-77
2023/01/12 05:33:53;;;;;;;0.75;0.75;;;7.50;99.90;;;;;;5043040;28;20484;-78
2023/01/12 05:36:19;;;;;;;1.58;0.73;;;7.50;99.90;;;;;;5042108;28;20100;-78
2023/01/12 05:38:45;;;;;;;0.22;0.22;;;7.50;99.90;;;;;;5040988;28;20497;-77
2023/01/12 05:41:13;;;;;;;0.50;0.50;;;7.50;99.90;;;;;;5042298;28;20021;-80
2023/01/12 05:43:51;;;;;;;0.47;0.47;;;7.40;99.90;;;;;;5042654;28;20584;-79
2023/01/12 05:46:26;;;;;;;0.10;0.10;;;7.40;99.90;;;;;;5042935;28;20037;-79
2023/01/12 05:48:54;;;;;;;0.30;0.30;;;7.50;99.90;;;;;;5037228;28;20033;-79
2023/01/12 05:51:20;;;;;;;1.75;1.27;;;7.50;99.90;;;;;;5042105;28;20112;-79
2023/01/12 05:53:46;;;;;;;9.07;0.52;;;7.50;99.90;;;;;;5043175;28;20025;-80
2023/01/12 05:56:16;;;;;;;3.33;2.40;;;7.50;99.90;;;;;;5042778;28;20076;-79
2023/01/12 05:58:42;;;;;;;0.10;0.10;;;7.50;99.90;;;;;;5038026;28;20037;-79
2023/01/12 06:01:08;;;;;;;0.10;0.10;;;7.50;99.90;;;;;;5046183;28;20089;-80
2023/01/12 06:03:35;;;;;;;0.32;0.32;;;7.50;99.90;;;;;;5040721;28;20027;-80
2023/01/12 06:06:02;;;;;;;1.10;0.70;;;7.50;99.90;;;;;;5040210;28;20029;-79
2023/01/12 06:08:28;;;;;;;4.60;0.93;;;7.50;99.90;;;;;;5041465;28;20053;-81
2023/01/12 06:10:53;;;;;;;1.98;1.80;;;7.50;99.90;;;;;;5042054;28;20548;-82
2023/01/12 06:16:07;;;;;;;0.65;0.65;;;7.50;99.90;;;;;;5032098;28;20063;-80
2023/01/12 06:18:38;;;;;;;2.17;0.35;;;7.50;99.90;;;;;;5034029;28;20504;-80
2023/01/12 06:21:06;;;;;;;1.65;1.02;;;7.50;99.90;;;;;;5046790;28;20476;-79
2023/01/12 06:23:32;;;;;;;0.10;0.10;;;7.50;99.90;;;;;;5048296;28;20109;-79
2023/01/12 06:26:03;;;;;;;0.70;0.70;;;7.50;99.90;;;;;;5047802;28;20071;-80
2023/01/12 06:28:29;;;;;;;0.55;0.55;;;7.50;99.90;;;;;;5045189;28;20033;-81
2023/01/12 06:30:57;;;;;;;1.00;0.98;;;7.50;99.90;;;;;;5042975;28;20028;-80
2023/01/12 06:33:23;;;;;;;1.55;1.45;;;7.50;99.90;;;;;;5042364;28;20051;-80
2023/01/12 06:35:49;;;;;;;0.50;0.50;;;7.50;99.90;;;;;;5038489;28;20646;-79
2023/01/12 06:38:15;;;;;;;3.72;0.88;;;7.50;99.90;;;;;;5044835;28;20036;-79
2023/01/12 06:40:40;;;;;;;7.32;2.25;;;7.50;99.90;;;;;;5042656;28;20040;-81
2023/01/12 06:43:06;;;;;;;1.85;1.63;;;7.60;99.90;;;;;;5043638;28;20036;-79
2023/01/12 06:45:32;;;;;;;0.65;0.65;;;7.50;99.90;;;;;;5033365;28;20029;-81
2023/01/12 06:47:58;;;;;;;0.80;0.80;;;7.60;99.90;;;;;;5036300;28;20194;-82
2023/01/12 06:50:24;;;;;;;0.70;0.65;;;7.60;99.90;;;;;;5035698;28;20034;-82
2023/01/12 06:52:49;;;;;;;0.65;0.65;;;7.60;99.90;;;;;;5042197;28;20029;-83
2023/01/12 06:55:15;;;;;;;0.52;0.45;;;7.50;99.90;;;;;;5043115;28;20025;-81
2023/01/12 06:57:41;;;;;;;0.60;0.60;;;7.50;99.90;;;;;;5040634;28;20495;-82
2023/01/12 07:00:07;;;;;;;4.35;3.55;;;7.50;99.90;;;;;;5035825;28;20074;-82
2023/01/12 07:02:33;;;;;;;6.68;4.88;;;7.50;99.90;;;;;;5044129;28;20032;-82
2023/01/12 07:04:59;;;;;;;2.75;2.60;;;7.50;99.90;;;;;;5042133;28;20400;-82
2023/01/12 07:07:24;;;;;;;0.73;0.73;;;7.50;99.90;;;;;;5041904;28;20039;-84
2023/01/12 07:09:50;;;;;;;0.28;0.28;;;7.50;99.90;;;;;;5042061;28;20439;-84
2023/01/12 07:12:16;;;;;;;0.15;0.15;;;7.50;99.90;;;;;;5042719;28;20124;-81
2023/01/12 07:14:42;;;;;;;0.82;0.82;;;7.50;99.90;;;;;;5042385;28;20067;-82
2023/01/12 07:17:07;;;;;;;4.75;1.48;;;7.60;99.90;;;;;;5040334;28;20079;-83
2023/01/12 07:19:33;;;;;;;0.73;0.68;;;7.60;99.90;;;;;;5042159;28;20036;-83
2023/01/12 07:21:59;;;;;;;0.50;0.50;;;7.50;99.90;;;;;;5036205;28;20552;-78
2023/01/12 07:24:24;;;;;;;0.98;0.98;;;7.50;99.90;;;;;;5045367;28;20857;-78
2023/01/12 07:26:51;;;;;;;4.53;2.95;;;7.50;99.90;;;;;;5050049;28;20030;-78
2023/01/12 07:29:17;;;;;;;13.65;11.43;;;7.50;99.90;;;;;;5043293;28;20036;-79
2023/01/12 07:31:44;;;;;;;30.98;13.10;;;7.50;99.90;;;;;;5045663;28;20033;-80
2023/01/12 07:34:10;;;;;;;2.33;2.13;;;7.50;99.90;;;;;;5044184;28;21099;-79
2023/01/12 07:36:36;;;;;;;13.37;10.00;;;7.50;99.90;;;;;;5040919;28;20523;-79
2023/01/12 07:39:01;;;;;;;20.15;6.18;;;7.50;99.90;;;;;;5043463;28;20127;-79
2023/01/12 07:44:11;;;;;;;2.85;0.82;;;7.40;99.90;;;;;;5046885;28;20417;-79
2023/01/12 07:46:37;;;;;;;0.10;0.10;;;7.40;99.90;;;;;;5045784;28;20037;-79
2023/01/12 07:49:03;;;;;;;0.65;0.47;;;7.50;99.90;;;;;;5044213;28;20492;-79
2023/01/12 07:51:30;;;;;;;0.47;0.47;;;7.40;99.90;;;;;;5042260;28;20473;-79
2023/01/12 07:53:55;;;;;;;0.57;0.30;;;7.50;99.90;;;;;;5045258;28;20104;-79
2023/01/12 07:56:21;;;;;;;0.10;0.10;;;7.50;99.90;;;;;;5044882;28;20048;-79
2023/01/12 07:58:48;;;;;;;3.53;3.25;;;7.50;99.90;;;;;;5045154;28;20039;-78
2023/01/12 08:01:14;;;;;;;0.20;0.20;;;7.50;99.90;;;;;;5037533;28;20489;-79
2023/01/12 08:03:40;;;;;;;0.10;0.10;;;7.50;99.90;;;;;;5039296;28;20039;-78
2023/01/12 08:06:06;;;;;;;0.17;0.17;;;7.60;99.90;;;;;;5041739;28;20037;-79
2023/01/12 08:08:32;;;;;;;2.40;1.97;;;7.60;99.90;;;;;;5039760;28;20063;-78
2023/01/12 08:11:03;;;;;;;2.93;1.90;;;7.60;99.90;;;;;;5044203;28;20551;-79
2023/01/12 08:13:29;;;;;;;5.90;2.03;;;7.60;99.90;;;;;;5044338;28;20291;-79
2023/01/12 08:16:03;;;;;;;1.80;1.55;;;7.60;99.90;;;;;;5044617;28;20459;-79
2023/01/12 08:18:41;;;;;;;1.10;0.95;;;7.60;99.90;;;;;;5044383;28;20562;-79
2023/01/12 08:21:11;;;;;;;0.45;0.45;;;7.60;99.90;;;;;;5037170;28;20028;-79
2023/01/12 08:23:48;;;;;;;0.20;0.20;;;7.70;99.90;;;;;;5044780;28;20033;-79
2023/01/12 08:26:18;;;;;;;0.50;0.43;;;7.70;99.90;;;;;;5046468;28;20163;-80
2023/01/12 08:28:53;;;;;;;0.10;0.10;;;7.80;99.90;;;;;;5044175;28;20033;-79
2023/01/12 08:31:21;;;;;;;2.85;0.57;;;7.80;99.90;;;;;;5044084;28;21275;-79
2023/01/12 08:33:47;;;;;;;0.13;0.13;;;7.90;99.90;;;;;;5044211;28;20035;-80
2023/01/12 08:36:15;;;;;;;0.55;0.55;;;8.10;99.90;;;;;;5043512;28;20396;-79
2023/01/12 08:38:41;;;;;;;0.10;0.10;;;8.10;99.90;;;;;;5044509;28;20044;-78
2023/01/12 08:44:05;;;;;;;0.28;0.28;;;8.30;99.90;;;;;;5043151;28;20094;-77
2023/01/12 08:46:36;;;;;;;0.20;0.20;;;8.40;99.90;;;;;;5044154;28;20419;-79
2023/01/12 08:49:07;;;;;;;0.57;0.40;;;8.40;99.90;;;;;;5044604;28;20044;-79
2023/01/12 08:51:33;;;;;;;0.47;0.47;;;8.50;99.90;;;;;;5044010;28;20060;-80
2023/01/12 08:54:00;;;;;;;0.10;0.10;;;8.50;99.90;;;;;;5043754;28;20460;-80
2023/01/12 08:56:25;;;;;;;0.77;0.77;;;8.60;99.90;;;;;;5043506;28;20492;-79
2023/01/12 08:58:51;;;;;;;0.10;0.10;;;8.60;99.90;;;;;;5043500;28;20052;-80
2023/01/12 09:01:18;;;;;;;0.20;0.20;;;8.70;99.90;;;;;;5035958;28;20108;-78
2023/01/12 09:03:45;;;;;;;0.63;0.63;;;8.60;99.90;;;;;;5040160;28;20029;-80
2023/01/12 09:06:15;;;;;;;0.30;0.30;;;8.60;99.90;;;;;;5039738;28;20033;-79
2023/01/12 09:08:41;;;;;;;0.40;0.40;;;8.60;99.90;;;;;;5040223;28;20136;-79
2023/01/12 09:11:08;;;;;;;0.10;0.10;;;8.60;99.90;;;;;;5043377;28;20021;-79
2023/01/12 09:13:34;;;;;;;1.10;0.85;;;8.70;99.90;;;;;;5043411;28;20063;-79
2023/01/12 09:16:08;;;;;;;0.43;0.43;;;8.70;99.90;;;;;;5043685;28;20433;-78
2023/01/12 09:18:35;;;;;;;1.35;0.52;;;8.70;99.90;;;;;;5039278;28;20037;-79
2023/01/12 09:21:12;;;;;;;0.47;0.37;;;8.70;99.90;;;;;;5043858;28;20718;-78
2023/01/12 09:23:39;;;;;;;1.35;1.25;;;8.70;99.90;;;;;;5043737;28;20260;-78
2023/01/12 09:26:07;;;;;;;1.65;0.15;;;8.60;99.90;;;;;;5045528;28;20084;-79
2023/01/12 09:28:34;;;;;;;0.90;0.90;;;8.60;99.90;;;;;;5043654;28;20395;-79
2023/01/12 09:31:04;;;;;;;2.78;0.82;;;8.60;99.90;;;;;;5043889;28;20467;-79
2023/01/12 09:33:31;;;;;;;0.20;0.20;;;8.60;99.90;;;;;;5041199;28;20727;-79
2023/01/12 09:36:05;;;;;;;0.28;0.28;;;8.70;99.90;;;;;;5043818;28;20028;-78
2023/01/12 09:38:33;;;;;;;0.20;0.20;;;8.80;99.90;;;;;;5041273;28;20115;-80
2023/01/12 09:41:02;;;;;;;23.80;1.23;;;8.80;99.90;;;;;;5042759;28;20514;-79
2023/01/12 09:49:19;;;;;;;2.45;0.57;;;9.00;99.90;;;;;;5041577;28;20068;-79
2023/01/12 09:52:11;;;;;;;0.25;0.17;;;9.10;99.90;;;;;;5043075;28;20025;-79
2023/01/12 09:54:37;;;;;;;0.10;0.10;;;9.20;99.90;;;;;;5037578;28;20081;-79
2023/01/12 09:57:35;;;;;;;1.40;1.30;;;9.20;99.90;;;;;;5042909;28;20025;-80
2023/01/12 10:00:03;;;;;;;0.25;0.25;;;9.20;99.90;;;;;;5037658;28;20029;-79
2023/01/12 10:02:34;;;;;;;0.20;0.20;;;9.30;99.90;;;;;;5036660;28;20108;-80
2023/01/12 10:05:06;;;;;;;0.05;0.05;;;9.30;99.90;;;;;;5043293;28;20067;-80
2023/01/12 10:07:31;;;;;;;4.68;0.70;;;9.60;99.90;;;;;;5039528;28;20389;-80
2023/01/12 10:09:57;;;;;;;0.68;0.68;;;9.60;99.90;;;;;;5042291;28;20065;-79
2023/01/12 10:12:45;;;;;;;0.80;0.80;;;9.70;99.90;;;;;;5042986;28;20036;-79
2023/01/12 10:15:28;;;;;;;0.20;0.20;;;9.60;99.90;;;;;;5039583;28;20286;-78
2023/01/12 10:17:59;;;;;;;0.47;0.47;;;9.50;99.90;;;;;;5041499;28;20126;-79
2023/01/12 10:20:26;;;;;;;0.32;0.32;;;9.40;99.90;;;;;;5043037;28;20126;-79
2023/01/12 10:23:11;;;;;;;2.33;1.35;;;9.20;99.90;;;;;;5042814;28;20035;-78
2023/01/12 10:25:39;;;;;;;0.50;0.50;;;9.20;99.90;;;;;;5039401;28;20819;-79
2023/01/12 10:28:25;;;;;;;0.50;0.50;;;9.20;99.90;;;;;;5046535;28;20032;-79
2023/01/12 10:30:52;;;;;;;0.20;0.20;;;9.10;99.90;;;;;;5042453;28;20025;-79
2023/01/12 10:33:34;;;;;;;0.22;0.22;;;9.20;99.90;;;;;;5042111;28;20028;-78
2023/01/12 10:36:10;;;;;;;1.02;0.98;;;9.30;99.90;;;;;;5042202;28;20059;-80
2023/01/12 10:38:38;;;;;;;1.23;0.40;;;9.50;99.90;;;;;;5040805;28;20123;-79
2023/01/12 10:41:15;;;;;;;0.43;0.43;;;9.60;99.90;;;;;;5042056;28;20585;-79
2023/01/12 10:43:43;;;;;;;9.70;1.52;;;9.40;99.90;;;;;;5042274;28;20424;-79
2023/01/12 10:46:09;;;;;;;0.88;0.52;;;9.40;99.90;;;;;;5042092;28;20744;-80
2023/01/12 10:48:37;;;;;;;3.38;1.42;;;9.60;99.90;;;;;;5042364;28;20033;-79
2023/01/12 10:51:06;;;;;;;0.57;0.57;;;9.90;99.90;;;;;;5042542;28;20087;-79
2023/01/12 10:53:37;;;;;;;0.57;0.57;;;10.20;99.90;;;;;;5042373;28;20021;-78
2023/01/12 10:56:20;;;;;;;1.35;1.25;;;10.20;99.90;;;;;;5042315;28;20032;-79
2023/01/12 10:59:09;;;;;;;0.60;0.60;;;10.30;99.90;;;;;;5038543;28;20037;-79
2023/01/12 11:01:45;;;;;;;0.20;0.20;;;10.50;99.90;;;;;;5036017;28;20907;-78
2023/01/12 11:04:18;;;;;;;0.77;0.68;;;10.70;99.90;;;;;;5046364;28;20033;-79
2023/01/12 11:07:14;;;;;;;0.57;0.50;;;10.60;99.90;;;;;;5038422;28;20026;-79
2023/01/12 11:09:42;;;;;;;0.63;0.40;;;10.40;99.90;;;;;;5037769;28;20052;-80
2023/01/12 11:12:18;;;;;;;0.57;0.57;;;10.40;99.90;;;;;;5046104;28;20021;-78
2023/01/12 11:15:02;;;;;;;0.20;0.20;;;10.10;99.90;;;;;;5046422;28;20104;-80
2023/01/12 11:17:35;;;;;;;1.10;1.00;;;10.20;99.90;;;;;;5044583;28;20118;-78
2023/01/12 11:20:12;;;;;;;0.08;0.08;;;10.20;99.90;;;;;;5042501;28;20120;-78
2023/01/12 11:22:40;;;;;;;0.10;0.10;;;10.00;99.90;;;;;;5037615;28;20033;-79
2023/01/12 11:25:20;;;;;;;0.10;0.10;;;10.10;99.90;;;;;;5045525;28;20038;-79
2023/01/12 11:28:12;;;;;;;1.73;1.00;;;10.10;99.90;;;;;;5043370;28;20903;-79
2023/01/12 11:31:01;;;;;;;0.65;0.65;;;10.40;99.90;;;;;;5045294;28;20067;-79
2023/01/12 11:33:37;;;;;;;7.72;2.08;;;10.70;99.90;;;;;;5044575;28;20105;-79
2023/01/12 11:36:08;;;;;;;0.43;0.25;;;10.70;99.90;;;;;;5045767;28;20033;-79
2023/01/12 11:38:47;;;;;;;1.40;0.90;;;10.60;99.90;;;;;;5045017;28;20400;-79
2023/01/12 11:45:19;;;;;;;2.25;0.85;;;10.80;99.90;;;;;;5044283;28;20086;-79
2023/01/12 11:47:57;;;;;;;0.10;0.10;;;10.70;99.90;;;;;;5020624;28;20041;-80
2023/01/12 11:50:26;;;;;;;0.57;0.50;;;10.50;99.90;;;;;;5021966;28;20025;-79
2023/01/12 11:52:54;;;;;;;0.30;0.30;;;10.30;99.90;;;;;;5031515;28;20754;-79
2023/01/12 11:55:47;;;;;;;0.15;0.15;;;10.20;99.90;;;;;;5044760;28;20190;-79
2023/01/12 11:58:26;;;;;;;0.22;0.22;;;10.40;99.90;;;;;;5044791;28;20044;-80
2023/01/12 12:01:00;;;;;;;0.55;0.55;;;10.40;99.90;;;;;;5042800;28;20021;-80
2023/01/12 12:03:29;;;;;;;0.43;0.43;;;10.40;99.90;;;;;;5050136;28;20036;-79
2023/01/12 12:06:32;;;;;;;2.75;1.00;;;10.60;99.90;;;;;;5042228;28;20885;-79
2023/01/12 12:09:21;;;;;;;1.55;0.65;;;10.60;99.90;;;;;;5016892;28;20076;-80
2023/01/12 12:11:52;;;;;;;0.73;0.52;;;10.80;99.90;;;;;;5044703;28;20021;-79
2023/01/12 12:14:46;;;;;;;0.47;0.47;;;10.70;99.90;;;;;;5043759;28;20029;-80
2023/01/12 12:17:21;;;;;;;0.45;0.35;;;10.50;99.90;;;;;;5045018;28;20040;-79
2023/01/12 12:20:28;;;;;;;0.20;0.20;;;10.30;99.90;;;;;;5040928;28;20116;-78
2023/01/12 12:23:20;;;;;;;0.40;0.40;;;10.50;99.90;;;;;;5036863;28;20432;-79
2023/01/12 12:26:06;;;;;;;0.30;0.30;;;10.50;99.90;;;;;;5043750;28;20774;-80
2023/01/12 12:28:38;;;;;;;0.10;0.10;;;10.60;99.90;;;;;;5044253;28;20087;-80
2023/01/12 12:31:41;;;;;;;0.40;0.40;;;10.70;99.90;;;;;;5044236;28;20096;-80
2023/01/12 12:34:31;;;;;;;1.02;1.00;;;10.80;99.90;;;;;;5044202;28;20025;-79
2023/01/12 12:37:44;;;;;;;0.55;0.55;;;10.70;99.90;;;;;;5047362;28;20035;-80
2023/01/12 12:46:18;;;;;;;1.55;1.17;;;10.00;99.90;;;;;;5044143;28;20110;-80
2023/01/12 12:48:56;;;;;;;0.68;0.55;;;10.10;99.90;;;;;;5044245;28;20067;-79
2023/01/12 12:51:24;;;;;;;0.40;0.40;;;10.20;99.90;;;;;;5043466;28;20029;-79
2023/01/12 12:53:51;;;;;;;0.40;0.38;;;10.20;99.90;;;;;;5043879;28;20017;-79
2023/01/12 12:56:20;;;;;;;9.75;0.47;;;10.40;99.90;;;;;;5043524;28;20555;-79
2023/01/12 12:58:50;;;;;;;0.52;0.52;;;10.60;99.90;;;;;;5042850;28;20713;-79
2023/01/12 13:01:19;;;;;;;0.22;0.22;;;10.70;99.90;;;;;;5044744;28;20044;-80
2023/01/12 13:03:46;;;;;;;9.02;2.85;;;10.90;99.90;;;;;;5046786;28;20103;-79
2023/01/12 13:06:25;;;;;;;0.10;0.10;;;10.90;99.90;;;;;;5042151;28;20035;-80
2023/01/12 13:08:53;;;;;;;3.97;0.47;;;11.00;99.90;;;;;;5043401;28;20179;-79
2023/01/12 13:11:20;;;;;;;1.38;0.95;;;10.90;99.90;;;;;;5043820;28;20120;-80
2023/01/12 13:14:27;;;;;;;0.65;0.65;;;10.80;99.90;;;;;;5043621;28;20760;-79
2023/01/12 13:16:57;;;;;;;9.52;2.75;;;10.90;99.90;;;;;;5043668;28;20032;-79
2023/01/12 13:19:47;;;;;;;0.10;0.10;;;11.00;99.90;;;;;;5045674;28;20075;-79
2023/01/12 13:22:29;;;;;;;0.10;0.10;;;11.10;99.90;;;;;;5041902;28;20048;-80
2023/01/12 13:25:19;;;;;;;0.43;0.43;;;11.10;99.90;;;;;;5043165;28;20111;-79
2023/01/12 13:28:00;;;;;;;0.98;0.40;;;11.20;99.90;;;;;;5040552;28;20139;-79
2023/01/12 13:30:25;;;;;;;0.10;0.10;;;11.00;99.90;;;;;;5041555;28;20025;-80
2023/01/12 13:32:54;;;;;;;1.08;0.95;;;11.00;99.90;;;;;;5058609;28;20522;-79
2023/01/12 13:35:31;;;;;;;0.22;0.22;;;10.80;99.90;;;;;;5043221;28;20136;-80
2023/01/12 13:38:14;;;;;;;0.30;0.30;;;10.80;99.90;;;;;;5043328;28;20037;-79
2023/01/12 13:40:41;;;;;;;0.30;0.30;;;10.80;99.90;;;;;;5042959;28;20035;-79
2023/01/12 13:43:20;;;;;;;0.10;0.10;;;10.80;99.90;;;;;;5042576;28;20024;-79
2023/01/12 13:45:55;;;;;;;1.08;0.88;;;10.90;99.90;;;;;;5037611;28;20267;-79
2023/01/12 13:48:21;;;;;;;0.22;0.20;;;10.90;99.90;;;;;;5042794;28;20024;-79
2023/01/12 13:50:49;;;;;;;0.00;0.00;;;10.90;99.90;;;;;;5042680;28;20032;-79
2023/01/12 13:53:27;;;;;;;1.25;0.93;;;11.00;99.90;;;;;;5042952;28;20064;-78
2023/01/12 13:56:05;;;;;;;0.10;0.10;;;11.00;99.90;;;;;;5042881;28;20055;-79
2023/01/12 13:58:41;;;;;;;0.32;0.32;;;11.00;99.90;;;;;;5042617;28;20048;-79